Time;durP1;ratioP1;P1;durP2;ratioP2;P2;SDS_P1;SDS_P2;PMS_P1;PMS_P2;Temp;Humidity;BMP_temperature;BMP_pressure;BME280_temperature;BME280_humidity;BME280_pressure;Samples;Min_cycle;Max_cycle;Signal;HPM_P1;HPM_P2
2023/09/20 00:00:00;;;;;;;7.65;3.20;;;;;;;;;;10356404;28;20036;-60
2023/09/20 00:05:00;;;;;;;8.20;3.17;;;;;;;;;;10360260;28;20037;-61
2023/09/20 00:10:01;;;;;;;15.38;3.42;;;;;;;;;;10367175;28;20025;-60
2023/09/20 00:15:02;;;;;;;5.57;2.92;;;;;;;;;;10356584;28;20084;-60
2023/09/20 00:20:06;;;;;;;7.97;2.97;;;;;;;;;;10355010;28;20041;-60
2023/09/20 00:25:12;;;;;;;7.22;3.38;;;;;;;;;;10360765;28;20481;-60
2023/09/20 00:30:14;;;;;;;6.75;3.45;;;;;;;;;;10369281;28;20057;-61
2023/09/20 00:35:19;;;;;;;11.10;2.85;;;;;;;;;;10367745;28;20497;-61
2023/09/20 00:40:21;;;;;;;7.75;2.58;;;;;;;;;;10358540;28;20068;-61
2023/09/20 00:45:22;;;;;;;11.43;2.97;;;;;;;;;;10356294;28;20604;-61
2023/09/20 00:50:26;;;;;;;5.95;2.63;;;;;;;;;;10369234;28;20196;-61
2023/09/20 00:55:30;;;;;;;9.60;3.15;;;;;;;;;;10353685;28;20028;-61
2023/09/20 01:00:33;;;;;;;11.93;2.95;;;;;;;;;;10360038;28;20082;-61
2023/09/20 01:05:37;;;;;;;16.52;3.00;;;;;;;;;;10363317;28;20064;-61
2023/09/20 01:10:37;;;;;;;5.15;2.75;;;;;;;;;;10359611;28;20528;-61
2023/09/20 01:15:38;;;;;;;5.90;2.63;;;;;;;;;;10346127;28;20026;-61
2023/09/20 01:20:40;;;;;;;7.28;3.20;;;;;;;;;;10364921;28;20529;-61
2023/09/20 01:25:43;;;;;;;8.88;2.63;;;;;;;;;;10344785;28;20042;-60
2023/09/20 01:30:49;;;;;;;9.77;2.55;;;;;;;;;;10366548;28;20027;-61
2023/09/20 01:35:50;;;;;;;7.38;2.92;;;;;;;;;;10353355;28;20397;-61
2023/09/20 01:40:55;;;;;;;5.85;2.92;;;;;;;;;;10353527;28;20025;-60
2023/09/20 01:45:55;;;;;;;5.65;2.63;;;;;;;;;;10343983;28;20034;-60
2023/09/20 01:50:56;;;;;;;5.63;2.42;;;;;;;;;;10342879;28;20049;-60
2023/09/20 01:55:57;;;;;;;6.60;2.45;;;;;;;;;;10341243;28;20088;-60
2023/09/20 02:00:58;;;;;;;4.95;2.30;;;;;;;;;;10332675;28;20031;-60
2023/09/20 02:05:58;;;;;;;6.30;2.67;;;;;;;;;;10351295;28;20513;-60
2023/09/20 02:10:59;;;;;;;8.07;2.90;;;;;;;;;;10337342;28;20474;-61
2023/09/20 02:16:00;;;;;;;5.22;2.50;;;;;;;;;;10345668;28;20374;-60
2023/09/20 02:21:00;;;;;;;9.07;2.45;;;;;;;;;;10335664;28;20030;-60
2023/09/20 02:26:01;;;;;;;5.85;2.33;;;;;;;;;;10358040;28;20533;-60
2023/09/20 02:31:02;;;;;;;6.47;2.65;;;;;;;;;;10341173;28;20385;-61
2023/09/20 02:36:04;;;;;;;4.60;2.42;;;;;;;;;;10353484;28;20038;-60
2023/09/20 02:41:05;;;;;;;6.45;2.25;;;;;;;;;;10341824;28;20054;-63
2023/09/20 02:46:07;;;;;;;7.22;2.40;;;;;;;;;;10353358;28;20054;-64
2023/09/20 02:51:07;;;;;;;3.65;2.47;;;;;;;;;;10363297;28;20445;-60
2023/09/20 02:56:08;;;;;;;3.65;2.42;;;;;;;;;;10339587;28;20034;-60
2023/09/20 03:01:10;;;;;;;4.53;2.40;;;;;;;;;;10349628;28;20429;-61
2023/09/20 03:06:11;;;;;;;4.38;2.25;;;;;;;;;;10341471;28;20034;-60
2023/09/20 03:11:21;;;;;;;7.15;2.22;;;;;;;;;;10341505;28;20034;-62
2023/09/20 03:16:22;;;;;;;11.18;2.78;;;;;;;;;;10340191;28;20436;-63
2023/09/20 03:21:23;;;;;;;8.20;2.17;;;;;;;;;;10341719;28;20081;-63
2023/09/20 03:26:23;;;;;;;19.05;2.92;;;;;;;;;;10351016;28;20034;-63
2023/09/20 03:31:26;;;;;;;4.38;1.95;;;;;;;;;;10350839;28;20608;-62
2023/09/20 03:36:27;;;;;;;8.52;3.08;;;;;;;;;;10339575;28;20662;-61
2023/09/20 03:41:27;;;;;;;5.88;2.30;;;;;;;;;;10357463;28;20041;-60
2023/09/20 03:46:28;;;;;;;4.80;2.30;;;;;;;;;;10333935;28;20433;-61
2023/09/20 03:51:29;;;;;;;10.05;1.92;;;;;;;;;;10347761;28;20030;-61
2023/09/20 03:56:30;;;;;;;6.72;2.20;;;;;;;;;;10351580;28;20441;-60
2023/09/20 04:01:30;;;;;;;6.88;2.22;;;;;;;;;;10352393;28;20084;-60
2023/09/20 04:06:34;;;;;;;6.55;2.70;;;;;;;;;;10343883;28;20034;-62
2023/09/20 04:11:34;;;;;;;7.25;2.20;;;;;;;;;;10350455;28;20430;-61
2023/09/20 04:16:36;;;;;;;4.72;2.08;;;;;;;;;;10338265;28;20032;-62
2023/09/20 04:21:37;;;;;;;3.92;1.90;;;;;;;;;;10350194;28;20097;-60
2023/09/20 04:26:37;;;;;;;7.40;2.10;;;;;;;;;;10349166;28;20054;-61
2023/09/20 04:31:38;;;;;;;7.20;2.60;;;;;;;;;;10363134;28;20173;-60
2023/09/20 04:36:39;;;;;;;4.28;2.25;;;;;;;;;;10357436;28;20038;-61
2023/09/20 04:41:39;;;;;;;7.55;2.55;;;;;;;;;;10349021;28;20482;-60
2023/09/20 04:46:40;;;;;;;8.88;2.65;;;;;;;;;;10332215;28;20061;-60
2023/09/20 04:51:44;;;;;;;4.93;2.17;;;;;;;;;;10350844;28;20029;-60
2023/09/20 04:56:47;;;;;;;10.55;2.40;;;;;;;;;;10341795;28;20030;-60
2023/09/20 05:01:49;;;;;;;7.45;2.60;;;;;;;;;;10352292;28;20037;-60
2023/09/20 05:06:53;;;;;;;3.13;2.25;;;;;;;;;;10362051;28;20058;-60
2023/09/20 05:11:53;;;;;;;3.47;2.22;;;;;;;;;;10360801;28;20041;-60
2023/09/20 05:16:54;;;;;;;7.55;2.85;;;;;;;;;;10361234;28;20508;-61
2023/09/20 05:21:54;;;;;;;6.50;2.40;;;;;;;;;;10353164;28;20026;-61
2023/09/20 05:26:55;;;;;;;11.27;2.28;;;;;;;;;;10351580;28;20438;-61
2023/09/20 05:31:56;;;;;;;5.93;2.20;;;;;;;;;;10352092;28;20049;-62
2023/09/20 05:36:56;;;;;;;11.27;2.47;;;;;;;;;;10353783;28;20049;-62
2023/09/20 05:41:59;;;;;;;17.63;2.50;;;;;;;;;;10345493;28;20070;-62
2023/09/20 05:46:59;;;;;;;5.63;2.70;;;;;;;;;;10349087;28;20050;-60
2023/09/20 05:52:00;;;;;;;12.05;2.67;;;;;;;;;;10347730;28;20398;-61
2023/09/20 05:57:01;;;;;;;15.25;2.65;;;;;;;;;;10342126;28;20045;-61
2023/09/20 06:02:02;;;;;;;14.32;3.03;;;;;;;;;;10329640;28;20033;-60
2023/09/20 06:07:04;;;;;;;14.23;3.15;;;;;;;;;;10333442;28;20371;-59
2023/09/20 06:12:06;;;;;;;8.00;2.47;;;;;;;;;;10334917;28;20041;-60
2023/09/20 06:17:08;;;;;;;12.70;2.45;;;;;;;;;;10354638;28;20046;-60
2023/09/20 06:22:09;;;;;;;7.53;2.42;;;;;;;;;;10341863;28;20466;-60
2023/09/20 06:27:10;;;;;;;10.43;2.42;;;;;;;;;;10339359;28;20282;-60
2023/09/20 06:32:12;;;;;;;9.65;2.20;;;;;;;;;;10342107;28;20264;-59
2023/09/20 06:37:13;;;;;;;7.97;2.22;;;;;;;;;;10357433;28;20160;-59
2023/09/20 06:42:14;;;;;;;4.00;2.20;;;;;;;;;;10336313;28;20022;-58
2023/09/20 06:47:17;;;;;;;4.85;2.20;;;;;;;;;;10351896;28;20077;-59
2023/09/20 06:52:18;;;;;;;8.10;2.50;;;;;;;;;;10352753;28;20038;-59
2023/09/20 06:57:18;;;;;;;5.57;2.20;;;;;;;;;;10340148;28;20040;-59
2023/09/20 07:02:19;;;;;;;7.65;2.63;;;;;;;;;;10355617;28;20382;-59
2023/09/20 07:07:19;;;;;;;9.32;2.40;;;;;;;;;;10362917;28;20072;-59
2023/09/20 07:12:20;;;;;;;6.40;1.95;;;;;;;;;;10345249;28;20037;-59
2023/09/20 07:17:22;;;;;;;5.47;2.05;;;;;;;;;;10351234;28;20030;-59
2023/09/20 07:22:24;;;;;;;4.10;2.47;;;;;;;;;;10357489;28;20109;-60
2023/09/20 07:27:25;;;;;;;7.10;2.55;;;;;;;;;;10351769;28;20030;-58
2023/09/20 07:32:26;;;;;;;5.72;2.20;;;;;;;;;;10345400;28;20030;-59
2023/09/20 07:37:27;;;;;;;11.23;2.53;;;;;;;;;;10345877;28;20120;-59
2023/09/20 07:42:27;;;;;;;4.43;2.20;;;;;;;;;;10342326;28;20053;-59
2023/09/20 07:47:29;;;;;;;8.07;2.20;;;;;;;;;;10362064;28;20045;-58
2023/09/20 07:52:31;;;;;;;10.32;2.10;;;;;;;;;;10337896;28;20041;-59
2023/09/20 07:57:32;;;;;;;6.57;2.30;;;;;;;;;;10338531;28;20432;-58
2023/09/20 08:02:32;;;;;;;9.73;2.38;;;;;;;;;;10360737;28;20026;-59
2023/09/20 08:07:38;;;;;;;5.63;2.28;;;;;;;;;;10359192;28;20121;-59
2023/09/20 08:12:39;;;;;;;5.53;2.35;;;;;;;;;;10348667;28;20022;-59
2023/09/20 09:00:22;;;;;;;5.20;2.22;;;;;;;;;;10362678;28;20413;-58
2023/09/20 09:05:27;;;;;;;7.75;2.35;;;;;;;;;;10367338;28;20061;-58
2023/09/20 09:10:28;;;;;;;8.10;2.60;;;;;;;;;;10367019;28;20033;-59
2023/09/20 09:15:28;;;;;;;6.05;2.40;;;;;;;;;;10353757;28;20038;-59
2023/09/20 09:20:33;;;;;;;6.05;2.22;;;;;;;;;;10359934;28;20026;-59
2023/09/20 09:25:35;;;;;;;6.38;2.50;;;;;;;;;;10355183;28;20034;-59
2023/09/20 09:30:36;;;;;;;4.03;2.47;;;;;;;;;;10349761;28;20030;-58
2023/09/20 09:35:36;;;;;;;3.28;1.90;;;;;;;;;;10360492;28;20096;-58
2023/09/20 09:40:55;;;;;;;6.65;2.40;;;;;;;;;;10366329;28;20030;-59
2023/09/20 09:46:17;;;;;;;5.65;2.38;;;;;;;;;;10352992;28;20050;-59
2023/09/20 09:51:17;;;;;;;4.80;2.30;;;;;;;;;;10364845;28;20120;-58
2023/09/20 09:56:18;;;;;;;5.00;2.08;;;;;;;;;;10360617;28;20096;-60
2023/09/20 10:01:22;;;;;;;6.60;2.13;;;;;;;;;;10341131;28;20378;-59
2023/09/20 10:06:28;;;;;;;5.93;2.53;;;;;;;;;;10364827;28;20188;-58
2023/09/20 10:11:29;;;;;;;7.32;2.33;;;;;;;;;;10329476;28;20466;-59
2023/09/20 10:16:30;;;;;;;5.82;2.70;;;;;;;;;;10350928;28;20088;-58
2023/09/20 10:21:31;;;;;;;2.47;1.50;;;;;;;;;;10353799;28;20080;-59
2023/09/20 10:26:39;;;;;;;5.25;2.00;;;;;;;;;;10358418;28;20037;-58
2023/09/20 10:31:40;;;;;;;4.15;2.17;;;;;;;;;;10332406;28;20022;-59
2023/09/20 10:36:51;;;;;;;5.03;2.08;;;;;;;;;;10351925;28;20027;-59
2023/09/20 10:41:53;;;;;;;3.00;1.75;;;;;;;;;;10356181;28;20068;-60
2023/09/20 10:46:55;;;;;;;4.90;1.95;;;;;;;;;;10360294;28;20033;-58
2023/09/20 10:51:56;;;;;;;3.80;1.90;;;;;;;;;;10340454;28;20390;-59
2023/09/20 10:57:09;;;;;;;4.53;2.25;;;;;;;;;;10346061;28;20025;-59
2023/09/20 11:02:17;;;;;;;3.47;1.90;;;;;;;;;;10352049;28;20037;-58
2023/09/20 11:07:18;;;;;;;3.83;2.40;;;;;;;;;;10348455;28;20026;-59
2023/09/20 11:12:20;;;;;;;4.05;2.03;;;;;;;;;;10352754;28;20026;-59
2023/09/20 11:17:20;;;;;;;3.28;1.83;;;;;;;;;;10358113;28;20034;-58
2023/09/20 11:22:21;;;;;;;6.75;2.15;;;;;;;;;;10357773;28;20386;-59
2023/09/20 11:27:23;;;;;;;4.60;2.20;;;;;;;;;;10357673;28;20101;-59
2023/09/20 11:32:25;;;;;;;11.50;1.83;;;;;;;;;;10339851;28;20288;-58
2023/09/20 11:37:30;;;;;;;3.58;2.25;;;;;;;;;;10355197;28;21816;-60
2023/09/20 11:42:36;;;;;;;3.72;2.15;;;;;;;;;;10358865;28;20061;-60
2023/09/20 11:47:42;;;;;;;3.70;2.00;;;;;;;;;;10369391;28;20049;-59
2023/09/20 11:52:48;;;;;;;4.15;2.20;;;;;;;;;;10357312;28;20605;-59
2023/09/20 11:57:49;;;;;;;4.38;1.75;;;;;;;;;;10354356;28;20034;-58
2023/09/20 12:02:51;;;;;;;12.10;2.05;;;;;;;;;;10360164;28;20037;-58
2023/09/20 12:07:56;;;;;;;4.78;2.42;;;;;;;;;;10348843;28;20551;-59
2023/09/20 12:12:58;;;;;;;3.65;2.28;;;;;;;;;;10367848;28;20088;-60
2023/09/20 12:17:58;;;;;;;4.22;2.20;;;;;;;;;;10369260;28;20026;-58
2023/09/20 12:23:01;;;;;;;5.07;2.15;;;;;;;;;;10358208;28;20026;-59
2023/09/20 12:28:03;;;;;;;5.65;2.33;;;;;;;;;;10345988;28;20038;-58
2023/09/20 12:33:07;;;;;;;6.68;2.00;;;;;;;;;;10367743;28;20491;-60
2023/09/20 12:38:07;;;;;;;4.95;2.38;;;;;;;;;;10361213;28;20483;-60
2023/09/20 12:43:08;;;;;;;6.32;2.45;;;;;;;;;;10355569;28;20022;-60
2023/09/20 12:48:12;;;;;;;9.18;2.38;;;;;;;;;;10337689;28;20041;-60
2023/09/20 12:53:13;;;;;;;10.70;3.40;;;;;;;;;;10351580;28;20393;-60
2023/09/20 12:58:16;;;;;;;5.13;2.28;;;;;;;;;;10360482;28;20026;-60
2023/09/20 13:03:17;;;;;;;4.85;2.13;;;;;;;;;;10347231;28;20056;-60
2023/09/20 13:08:19;;;;;;;5.93;2.38;;;;;;;;;;10345847;28;20029;-60
2023/09/20 13:13:19;;;;;;;5.72;2.40;;;;;;;;;;10352636;28;20061;-60
2023/09/20 13:18:20;;;;;;;7.18;2.58;;;;;;;;;;10353265;28;20030;-60
2023/09/20 13:23:22;;;;;;;6.45;2.30;;;;;;;;;;10364902;28;20045;-60
2023/09/20 13:28:23;;;;;;;8.30;2.20;;;;;;;;;;10332793;28;20526;-59
2023/09/20 13:33:24;;;;;;;5.50;2.20;;;;;;;;;;10345547;28;20035;-59
2023/09/20 13:38:26;;;;;;;5.90;2.63;;;;;;;;;;10331000;28;20042;-59
2023/09/20 13:43:27;;;;;;;3.45;2.13;;;;;;;;;;10339620;28;20089;-58
2023/09/20 13:48:28;;;;;;;3.75;2.20;;;;;;;;;;10346917;28;20041;-58
2023/09/20 13:53:28;;;;;;;8.02;2.60;;;;;;;;;;10358121;28;20108;-60
2023/09/20 13:58:31;;;;;;;10.90;2.33;;;;;;;;;;10349939;28;20626;-58
2023/09/20 14:03:34;;;;;;;4.90;2.13;;;;;;;;;;10353974;28;20100;-59
2023/09/20 14:08:35;;;;;;;5.57;2.30;;;;;;;;;;10359721;28;20077;-58
2023/09/20 14:13:37;;;;;;;6.55;2.42;;;;;;;;;;10361371;28;20034;-60
2023/09/20 14:18:40;;;;;;;6.43;2.83;;;;;;;;;;10361819;28;20033;-59
2023/09/20 14:23:40;;;;;;;4.32;2.42;;;;;;;;;;10362965;28;20038;-58
2023/09/20 14:28:42;;;;;;;6.25;2.38;;;;;;;;;;10345377;28;20357;-59
2023/09/20 14:33:42;;;;;;;5.50;2.40;;;;;;;;;;10352618;28;20040;-58
2023/09/20 14:38:44;;;;;;;3.00;2.05;;;;;;;;;;10365781;28;20052;-59
2023/09/20 14:43:44;;;;;;;4.75;2.22;;;;;;;;;;10336520;28;20026;-60
2023/09/20 14:48:45;;;;;;;3.80;2.55;;;;;;;;;;10344821;28;20042;-60
2023/09/20 14:53:46;;;;;;;5.80;2.53;;;;;;;;;;10350821;28;20022;-59
2023/09/20 14:58:48;;;;;;;10.90;2.50;;;;;;;;;;10338590;28;20026;-57
2023/09/20 15:03:48;;;;;;;6.53;2.50;;;;;;;;;;10330162;28;20044;-60
2023/09/20 15:08:49;;;;;;;3.40;2.13;;;;;;;;;;10331321;28;20025;-58
2023/09/20 15:13:53;;;;;;;3.85;2.00;;;;;;;;;;10345148;28;20033;-59
2023/09/20 15:18:55;;;;;;;7.95;2.50;;;;;;;;;;10350021;28;20361;-59
2023/09/20 15:23:57;;;;;;;6.28;2.10;;;;;;;;;;10341848;28;20577;-59
2023/09/20 15:28:57;;;;;;;6.55;2.45;;;;;;;;;;10343987;28;20033;-58
2023/09/20 15:33:58;;;;;;;6.28;2.53;;;;;;;;;;10350455;28;20042;-60
2023/09/20 15:39:00;;;;;;;4.30;1.95;;;;;;;;;;10351377;28;20026;-58
2023/09/20 15:44:04;;;;;;;8.23;2.50;;;;;;;;;;10336955;28;20045;-58
2023/09/20 15:49:05;;;;;;;3.97;2.05;;;;;;;;;;10352044;28;20046;-58
2023/09/20 15:54:05;;;;;;;7.70;2.50;;;;;;;;;;10351262;28;20092;-58
2023/09/20 15:59:06;;;;;;;3.63;2.17;;;;;;;;;;10332181;28;20035;-59
2023/09/20 16:04:07;;;;;;;5.25;2.72;;;;;;;;;;10331662;28;20021;-58
2023/09/20 16:09:09;;;;;;;4.25;2.10;;;;;;;;;;10329152;28;20033;-59
2023/09/20 16:14:10;;;;;;;6.20;2.45;;;;;;;;;;10336111;28;20057;-59
2023/09/20 16:19:11;;;;;;;4.35;2.50;;;;;;;;;;10353210;28;20054;-59
2023/09/20 16:24:12;;;;;;;3.85;1.80;;;;;;;;;;10335055;28;20021;-59
2023/09/20 16:29:12;;;;;;;5.93;2.63;;;;;;;;;;10338561;28;20025;-58
2023/09/20 16:34:13;;;;;;;3.72;1.98;;;;;;;;;;10365142;28;20030;-58
2023/09/20 16:39:15;;;;;;;3.13;2.35;;;;;;;;;;10356533;28;20026;-60
2023/09/20 16:44:16;;;;;;;4.85;2.25;;;;;;;;;;10345605;28;20032;-60
2023/09/20 16:49:18;;;;;;;5.93;2.53;;;;;;;;;;10345831;28;20034;-59
2023/09/20 16:54:18;;;;;;;3.67;2.60;;;;;;;;;;10345719;28;20080;-59
2023/09/20 16:59:19;;;;;;;27.98;3.95;;;;;;;;;;10345113;28;20496;-62
2023/09/20 17:04:20;;;;;;;38.40;4.28;;;;;;;;;;10327225;28;20410;-62
2023/09/20 17:09:23;;;;;;;15.27;4.22;;;;;;;;;;10343610;28;20486;-61
2023/09/20 17:14:26;;;;;;;23.02;4.15;;;;;;;;;;10362789;28;20113;-60
2023/09/20 17:19:26;;;;;;;14.30;3.58;;;;;;;;;;10366160;28;20067;-59
2023/09/20 17:24:27;;;;;;;10.55;3.20;;;;;;;;;;10366166;28;20026;-59
2023/09/20 17:29:28;;;;;;;10.43;3.65;;;;;;;;;;10364877;28;20021;-59
2023/09/20 17:34:29;;;;;;;23.00;3.63;;;;;;;;;;10340881;28;20048;-59
2023/09/20 17:39:34;;;;;;;9.45;3.42;;;;;;;;;;10353364;28;20026;-59
2023/09/20 17:44:35;;;;;;;10.70;3.25;;;;;;;;;;10349765;28;20382;-59
2023/09/20 17:49:38;;;;;;;8.70;3.05;;;;;;;;;;10343105;28;20103;-58
2023/09/20 17:54:39;;;;;;;7.18;3.15;;;;;;;;;;10364897;28;20044;-60
2023/09/20 17:59:40;;;;;;;4.63;2.60;;;;;;;;;;10351245;28;20512;-59
2023/09/20 18:04:44;;;;;;;10.35;3.67;;;;;;;;;;10347232;28;20128;-59
2023/09/20 18:09:45;;;;;;;5.90;2.92;;;;;;;;;;10349514;28;20481;-60
2023/09/20 18:14:47;;;;;;;8.63;3.15;;;;;;;;;;10346268;28;20026;-59
2023/09/20 18:19:47;;;;;;;6.68;3.33;;;;;;;;;;10341051;28;20276;-59
2023/09/20 18:24:48;;;;;;;5.40;2.63;;;;;;;;;;10350344;28;20284;-59
2023/09/20 18:29:52;;;;;;;7.80;3.17;;;;;;;;;;10349864;28;20041;-59
2023/09/20 18:34:52;;;;;;;4.07;2.80;;;;;;;;;;10329939;28;20066;-59
2023/09/20 18:39:53;;;;;;;3.72;2.28;;;;;;;;;;10340801;28;20548;-59
2023/09/20 18:44:54;;;;;;;7.65;2.60;;;;;;;;;;10346982;28;20077;-59
2023/09/20 18:49:55;;;;;;;5.85;2.70;;;;;;;;;;10350153;28;20501;-59
2023/09/20 18:54:58;;;;;;;5.72;2.65;;;;;;;;;;10349909;28;20381;-58
2023/09/20 18:59:59;;;;;;;8.40;2.88;;;;;;;;;;10331642;28;20111;-58
2023/09/20 19:04:59;;;;;;;5.85;2.65;;;;;;;;;;10345700;28;20088;-58
2023/09/20 19:10:00;;;;;;;6.97;2.72;;;;;;;;;;10342667;28;20042;-59
2023/09/20 19:15:04;;;;;;;5.70;2.35;;;;;;;;;;10336502;28;20034;-58
2023/09/20 19:20:12;;;;;;;3.95;2.25;;;;;;;;;;10337262;28;20031;-59
2023/09/20 19:25:16;;;;;;;7.63;2.47;;;;;;;;;;10339423;28;20030;-60
2023/09/20 19:30:17;;;;;;;6.65;2.67;;;;;;;;;;10341505;28;20386;-59
2023/09/20 19:35:19;;;;;;;5.53;2.03;;;;;;;;;;10344328;28;20132;-59
2023/09/20 19:40:20;;;;;;;3.17;1.88;;;;;;;;;;10343100;28;20030;-58
2023/09/20 19:45:20;;;;;;;5.72;2.17;;;;;;;;;;10333563;28;20056;-60
2023/09/20 19:50:22;;;;;;;7.93;2.35;;;;;;;;;;10363469;28;20030;-60
2023/09/20 19:55:27;;;;;;;8.05;2.45;;;;;;;;;;10344131;28;20034;-58
2023/09/20 20:00:28;;;;;;;18.52;2.63;;;;;;;;;;10345330;28;20038;-59
2023/09/20 20:05:29;;;;;;;16.70;2.30;;;;;;;;;;10335836;28;20053;-59
2023/09/20 20:10:30;;;;;;;7.70;2.28;;;;;;;;;;10346589;28;20489;-59
2023/09/20 20:15:30;;;;;;;5.65;2.17;;;;;;;;;;10352271;28;20045;-59
2023/09/20 20:20:35;;;;;;;7.13;2.20;;;;;;;;;;10351064;28;20374;-59
2023/09/20 20:25:40;;;;;;;4.40;1.88;;;;;;;;;;10339499;28;20034;-60
2023/09/20 20:30:43;;;;;;;7.30;2.20;;;;;;;;;;10335816;28;20139;-60
2023/09/20 20:35:44;;;;;;;8.27;1.92;;;;;;;;;;10336741;28;20034;-59
2023/09/20 20:40:45;;;;;;;5.53;2.00;;;;;;;;;;10346218;28;20033;-60
2023/09/20 20:45:46;;;;;;;11.05;2.25;;;;;;;;;;10342408;28;20072;-60
2023/09/20 20:50:47;;;;;;;3.35;1.98;;;;;;;;;;10344980;28;20112;-59
2023/09/20 20:55:55;;;;;;;4.47;2.03;;;;;;;;;;10347810;28;20034;-60
2023/09/20 21:00:56;;;;;;;4.53;2.05;;;;;;;;;;10336143;28;20037;-60
2023/09/20 21:05:59;;;;;;;2.88;1.70;;;;;;;;;;10345514;28;20033;-60
2023/09/20 21:11:06;;;;;;;8.63;2.60;;;;;;;;;;10339303;28;20134;-60
2023/09/20 21:16:07;;;;;;;25.70;2.90;;;;;;;;;;10337275;28;20505;-60
2023/09/20 21:21:08;;;;;;;29.30;3.03;;;;;;;;;;10342954;28;20034;-60
2023/09/20 21:26:10;;;;;;;13.55;2.55;;;;;;;;;;10342513;28;20022;-61
2023/09/20 21:31:13;;;;;;;7.72;2.25;;;;;;;;;;10344464;28;20116;-59
2023/09/20 21:36:14;;;;;;;14.23;3.08;;;;;;;;;;10346134;28;20033;-59
2023/09/20 21:41:14;;;;;;;5.28;2.40;;;;;;;;;;10340638;28;20386;-59
2023/09/20 21:46:15;;;;;;;7.20;2.33;;;;;;;;;;10335406;28;20393;-60
2023/09/20 21:51:16;;;;;;;3.80;2.15;;;;;;;;;;10345456;28;20366;-59
2023/09/20 21:56:17;;;;;;;11.20;2.80;;;;;;;;;;10340572;28;20080;-59
2023/09/20 22:01:18;;;;;;;4.28;2.25;;;;;;;;;;10352253;28;20029;-60
2023/09/20 22:06:18;;;;;;;10.93;2.65;;;;;;;;;;10348108;28;20030;-60
2023/09/20 22:11:19;;;;;;;6.40;3.20;;;;;;;;;;10333872;28;20022;-60
2023/09/20 22:16:20;;;;;;;4.35;2.50;;;;;;;;;;10339482;28;20529;-60
2023/09/20 22:21:21;;;;;;;5.45;2.22;;;;;;;;;;10339329;28;20022;-59
2023/09/20 22:26:22;;;;;;;12.55;2.30;;;;;;;;;;10339147;28;20066;-59
2023/09/20 22:31:24;;;;;;;9.65;2.47;;;;;;;;;;10331979;28;20022;-60
2023/09/20 22:36:25;;;;;;;6.35;2.08;;;;;;;;;;10338633;28;20035;-59
2023/09/20 22:41:25;;;;;;;3.80;2.65;;;;;;;;;;10333086;28;20037;-60
2023/09/20 22:46:28;;;;;;;7.35;2.47;;;;;;;;;;10330969;28;20062;-59
2023/09/20 22:51:28;;;;;;;4.50;2.00;;;;;;;;;;10358320;28;20021;-60
2023/09/20 22:56:29;;;;;;;3.47;2.50;;;;;;;;;;10338981;28;20033;-60
2023/09/20 23:01:30;;;;;;;4.60;2.47;;;;;;;;;;10352159;28;20040;-60
2023/09/20 23:06:31;;;;;;;6.72;2.33;;;;;;;;;;10352490;28;20092;-60
2023/09/20 23:11:32;;;;;;;3.85;2.50;;;;;;;;;;10339495;28;20393;-60
2023/09/20 23:16:33;;;;;;;7.60;3.08;;;;;;;;;;10355138;28;20045;-60
2023/09/20 23:21:34;;;;;;;5.75;2.40;;;;;;;;;;10348818;28;20026;-60
2023/09/20 23:26:36;;;;;;;6.00;2.58;;;;;;;;;;10363231;28;20040;-60
2023/09/20 23:31:46;;;;;;;4.55;2.58;;;;;;;;;;10343723;28;20397;-59
2023/09/20 23:36:47;;;;;;;3.58;2.67;;;;;;;;;;10351650;28;20579;-60
2023/09/20 23:41:49;;;;;;;4.15;2.25;;;;;;;;;;10364928;28;20174;-60
2023/09/20 23:46:50;;;;;;;4.45;2.50;;;;;;;;;;10336922;28;20046;-58
2023/09/20 23:51:51;;;;;;;8.57;2.47;;;;;;;;;;10348906;28;20054;-59
2023/09/20 23:56:53;;;;;;;5.10;2.65;;;;;;;;;;10335181;28;20041;-58
